Time;durP1;ratioP1;P1;durP2;ratioP2;P2;SDS_P1;SDS_P2;PMS_P1;PMS_P2;Temp;Humidity;BMP_temperature;BMP_pressure;BME280_temperature;BME280_humidity;BME280_pressure;Samples;Min_cycle;Max_cycle;Signal;HPM_P1;HPM_P2
2023/09/08 00:00:49;;;;;;;;;44.33;36.00;;;;;26.94;48.83;100871.38;6184321;23;45189;-85
2023/09/08 00:03:14;;;;;;;;;39.00;34.67;;;;;26.87;49.16;100860.38;6185700;22;45245;-87
2023/09/08 00:05:39;;;;;;;;;38.00;34.00;;;;;26.79;49.68;100852.25;6186226;23;65036;-83
2023/09/08 00:08:05;;;;;;;;;47.67;40.00;;;;;26.83;49.72;100863.69;6186331;23;45396;-84
2023/09/08 00:10:30;;;;;;;;;38.33;35.00;;;;;26.71;49.76;100855.94;6186241;23;45212;-84
2023/09/08 00:12:55;;;;;;;;;43.00;35.00;;;;;26.74;50.11;100862.91;6183580;23;45161;-84
2023/09/08 00:15:21;;;;;;;;;40.33;34.33;;;;;26.61;50.22;100858.06;6180794;23;65968;-85
2023/09/08 00:17:47;;;;;;;;;34.33;32.67;;;;;26.68;50.50;100871.81;6183282;23;54908;-82
2023/09/08 00:20:13;;;;;;;;;42.00;36.33;;;;;26.56;50.60;100854.16;6183849;23;45181;-81
2023/09/08 00:22:38;;;;;;;;;37.67;34.67;;;;;26.52;50.21;100858.31;6182491;23;45380;-80
2023/09/08 00:25:05;;;;;;;;;39.00;33.00;;;;;26.57;50.67;100861.34;6183312;22;45339;-83
2023/09/08 00:27:31;;;;;;;;;37.00;33.00;;;;;26.58;50.92;100865.78;6183077;22;45272;-84
2023/09/08 00:29:56;;;;;;;;;48.67;37.33;;;;;26.58;50.98;100869.34;6183236;22;45205;-81
2023/09/08 00:32:21;;;;;;;;;46.00;39.33;;;;;26.30;51.24;100822.66;6183585;22;45482;-83
2023/09/08 00:34:47;;;;;;;;;40.67;34.67;;;;;26.48;50.99;100852.38;6182714;22;59572;-84
2023/09/08 00:37:12;;;;;;;;;41.67;34.33;;;;;26.43;51.58;100852.06;6183587;22;45363;-82
2023/09/08 00:39:38;;;;;;;;;40.00;35.00;;;;;26.34;51.21;100840.34;6183397;23;45308;-83
2023/09/08 00:42:03;;;;;;;;;44.00;34.00;;;;;26.34;51.22;100851.25;6183202;22;45796;-83
2023/09/08 00:44:28;;;;;;;;;40.67;35.33;;;;;26.43;51.28;100869.31;6183348;23;46045;-83
2023/09/08 00:46:54;;;;;;;;;43.00;35.67;;;;;26.29;51.22;100845.50;6184114;22;45168;-83
2023/09/08 00:49:20;;;;;;;;;40.33;34.33;;;;;26.43;51.52;100868.41;6185916;22;45190;-83
2023/09/08 00:51:46;;;;;;;;;41.33;36.33;;;;;26.34;51.77;100859.44;6185571;23;45388;-82
2023/09/08 00:54:11;;;;;;;;;37.67;34.33;;;;;26.35;51.80;100863.88;6185990;22;45264;-82
2023/09/08 00:56:38;;;;;;;;;41.33;34.67;;;;;26.21;51.73;100844.72;6184000;23;45166;-81
2023/09/08 00:59:05;;;;;;;;;45.33;34.67;;;;;26.31;52.00;100868.00;6183387;23;45440;-81
2023/09/08 01:01:31;;;;;;;;;36.00;32.33;;;;;26.26;52.03;100859.50;6185134;22;45467;-82
2023/09/08 01:03:56;;;;;;;;;38.67;34.67;;;;;26.28;52.03;100862.88;6184625;22;58564;-81
2023/09/08 01:06:23;;;;;;;;;40.33;34.00;;;;;26.17;52.46;100852.38;6188007;23;45463;-81
2023/09/08 01:08:49;;;;;;;;;32.67;31.67;;;;;26.21;51.99;100861.94;6188490;22;45154;-81
2023/09/08 01:11:15;;;;;;;;;43.67;36.67;;;;;26.20;52.08;100862.97;6187839;23;45474;-82
2023/09/08 01:13:40;;;;;;;;;39.67;32.33;;;;;26.02;52.25;100841.41;6186613;23;46011;-83
2023/09/08 01:16:06;;;;;;;;;42.00;35.00;;;;;26.16;52.70;100864.31;6185207;23;53028;-83
2023/09/08 01:18:31;;;;;;;;;48.33;36.33;;;;;26.14;52.64;100869.97;6184705;23;45356;-84
2023/09/08 01:21:06;;;;;;;;;39.33;35.00;;;;;26.05;52.45;100851.13;6185326;23;45538;-85
2023/09/08 01:23:55;;;;;;;;;35.67;32.00;;;;;26.10;52.71;100859.63;6186761;23;45230;-83
2023/09/08 01:26:23;;;;;;;;;38.67;35.00;;;;;26.05;52.61;100853.88;6186548;22;45327;-83
2023/09/08 01:28:50;;;;;;;;;35.67;32.67;;;;;26.03;52.83;100854.03;6184338;22;45314;-85
2023/09/08 01:31:16;;;;;;;;;38.67;35.00;;;;;25.86;52.79;100836.94;6184648;22;45462;-82
2023/09/08 01:33:42;;;;;;;;;37.00;33.00;;;;;26.05;52.72;100865.63;6183736;22;45427;-82
2023/09/08 01:36:08;;;;;;;;;3.67;3.67;;;;;25.80;52.78;100826.75;6181800;23;45273;-82
2023/09/08 01:38:33;;;;;;;;;44.33;36.00;;;;;26.02;52.31;100867.81;6184446;22;45264;-84
2023/09/08 01:41:00;;;;;;;;;35.00;31.67;;;;;25.90;52.80;100842.88;6183386;23;45228;-85
2023/09/08 01:43:25;;;;;;;;;37.33;33.00;;;;;25.96;52.84;100860.38;6185075;23;45943;-82
2023/09/08 01:45:50;;;;;;;;;34.00;32.00;;;;;26.00;52.83;100864.44;6184073;23;51054;-83
2023/09/08 01:48:16;;;;;;;;;35.00;33.00;;;;;25.90;53.09;100852.91;6183163;23;62232;-82
2023/09/08 01:50:41;;;;;;;;;34.67;32.00;;;;;25.81;53.23;100854.84;6182183;23;45546;-82
2023/09/08 01:53:07;;;;;;;;;39.67;34.67;;;;;25.92;53.38;100873.53;6184482;23;45863;-82
2023/09/08 01:55:32;;;;;;;;;37.00;33.67;;;;;25.84;53.52;100854.50;6184733;23;45379;-81
2023/09/08 01:57:57;;;;;;;;;37.00;32.67;;;;;25.91;53.54;100860.06;6183758;22;45287;-83
2023/09/08 02:00:23;;;;;;;;;33.33;32.00;;;;;25.79;53.60;100857.75;6183482;22;45430;-81
2023/09/08 02:02:48;;;;;;;;;33.33;31.00;;;;;25.76;53.64;100871.72;6185236;23;45378;-82
2023/09/08 02:05:14;;;;;;;;;33.67;32.33;;;;;25.74;53.83;100870.19;6184674;22;45191;-82
2023/09/08 02:07:39;;;;;;;;;37.00;29.67;;;;;25.58;53.92;100838.41;6184817;23;45433;-81
2023/09/08 02:10:05;;;;;;;;;38.00;34.33;;;;;25.76;53.85;100858.09;6185054;23;45139;-83
2023/09/08 02:12:30;;;;;;;;;34.67;31.33;;;;;25.74;54.00;100860.16;6183901;23;47439;-81
2023/09/08 02:14:55;;;;;;;;;39.00;33.33;;;;;25.54;54.58;100845.25;6185408;23;45260;-82
2023/09/08 02:17:21;;;;;;;;;36.00;32.33;;;;;25.63;54.64;100873.28;6182827;23;61128;-86
2023/09/08 02:19:46;;;;;;;;;33.00;30.00;;;;;25.43;54.75;100851.09;6184433;22;45315;-81
2023/09/08 02:22:11;;;;;;;;;22.00;22.00;;;;;25.50;54.66;100873.84;6182114;23;71233;-84
2023/09/08 02:24:36;;;;;;;;;35.00;31.67;;;;;25.50;54.82;100879.28;6182859;23;57703;-84
2023/09/08 02:27:02;;;;;;;;;39.00;34.33;;;;;25.48;54.71;100876.75;6183241;23;55670;-86
2023/09/08 02:29:28;;;;;;;;;36.67;29.00;;;;;25.51;55.24;100887.28;6185081;23;45261;-88
2023/09/08 02:31:53;;;;;;;;;34.00;31.00;;;;;25.47;55.15;100885.94;6183711;22;45476;-86
2023/09/08 02:34:19;;;;;;;;;33.00;31.67;;;;;25.44;55.68;100877.28;6183852;22;45265;-86
2023/09/08 02:36:47;;;;;;;;;36.67;33.00;;;;;25.36;55.43;100877.28;6183436;22;45224;-88
2023/09/08 02:39:13;;;;;;;;;33.00;31.33;;;;;25.39;55.75;100883.28;6183438;23;45261;-83
2023/09/08 02:41:39;;;;;;;;;38.67;31.67;;;;;25.27;55.72;100858.28;6181418;23;46008;-79
2023/09/08 02:44:05;;;;;;;;;35.33;33.67;;;;;25.40;55.64;100874.06;6182626;23;45218;-83
2023/09/08 02:46:30;;;;;;;;;38.00;34.33;;;;;25.40;55.32;100879.50;6180871;23;45290;-83
2023/09/08 02:48:55;;;;;;;;;36.00;32.67;;;;;25.39;55.22;100882.38;6183325;23;45511;-81
2023/09/08 02:51:21;;;;;;;;;30.33;29.33;;;;;25.31;55.84;100866.09;6183434;22;45122;-83
2023/09/08 02:53:46;;;;;;;;;31.33;30.00;;;;;25.24;56.12;100858.63;6184900;23;45197;-86
2023/09/08 02:56:11;;;;;;;;;34.00;32.67;;;;;25.25;55.99;100865.75;6190484;23;45555;-88
2023/09/08 02:58:37;;;;;;;;;39.33;32.33;;;;;25.19;56.08;100850.13;6183961;23;45181;-87
2023/09/08 03:01:13;;;;;;;;;38.00;33.33;;;;;25.29;56.38;100882.59;6185104;23;45208;-87
2023/09/08 03:03:38;;;;;;;;;38.00;32.33;;;;;25.24;56.53;100890.44;6184845;23;45419;-87
2023/09/08 03:06:04;;;;;;;;;32.33;32.00;;;;;25.21;56.67;100888.91;6208678;22;45415;-89
2023/09/08 03:08:29;;;;;;;;;30.67;29.33;;;;;25.15;56.87;100880.59;6186095;22;45404;-85
2023/09/08 03:10:57;;;;;;;;;37.67;32.67;;;;;24.96;56.48;100852.69;6184490;23;45399;-79
2023/09/08 03:13:22;;;;;;;;;32.67;31.33;;;;;25.17;56.36;100890.28;6186337;22;45280;-82
2023/09/08 03:15:48;;;;;;;;;39.33;33.33;;;;;25.20;56.67;100879.03;6191032;23;45413;-81
2023/09/08 03:18:13;;;;;;;;;37.00;31.33;;;;;25.20;56.56;100879.03;6189015;23;51725;-81
2023/09/08 03:20:40;;;;;;;;;31.67;30.33;;;;;25.16;56.48;100866.81;6185716;23;56646;-85
2023/09/08 03:23:05;;;;;;;;;27.00;26.33;;;;;25.21;55.87;100883.47;6185656;22;45369;-84
2023/09/08 03:25:31;;;;;;;;;23.00;21.67;;;;;25.22;55.73;100879.72;6184265;23;45202;-83
2023/09/08 03:27:56;;;;;;;;;28.00;28.00;;;;;25.22;55.31;100879.72;6183998;23;58549;-83
2023/09/08 03:30:21;;;;;;;;;27.33;26.33;;;;;25.10;54.78;100850.31;6184801;22;45403;-82
2023/09/08 03:32:46;;;;;;;;;28.33;26.67;;;;;25.21;54.78;100863.56;6184203;23;45252;-83
2023/09/08 03:35:12;;;;;;;;;31.00;26.67;;;;;25.22;55.15;100871.56;6184611;22;45175;-83
2023/09/08 03:37:37;;;;;;;;;27.00;26.33;;;;;25.13;55.96;100867.19;6184478;23;45106;-84
2023/09/08 03:40:05;;;;;;;;;29.33;27.33;;;;;25.11;55.70;100874.63;6182747;22;67029;-82
2023/09/08 03:42:30;;;;;;;;;28.67;28.67;;;;;25.06;57.09;100871.59;6183114;22;45277;-83
2023/09/08 03:44:56;;;;;;;;;35.33;32.00;;;;;25.02;57.32;100874.84;6183567;22;45355;-82
2023/09/08 03:47:21;;;;;;;;;30.67;30.67;;;;;24.82;57.12;100845.25;6184791;22;45168;-83
2023/09/08 03:49:46;;;;;;;;;32.00;31.00;;;;;24.99;57.27;100873.25;6182940;23;67445;-86
2023/09/08 03:52:12;;;;;;;;;28.00;28.00;;;;;24.91;57.03;100856.97;6183829;23;45221;-85
2023/09/08 03:54:37;;;;;;;;;27.67;27.00;;;;;24.97;56.64;100869.88;6184865;22;45391;-87
2023/09/08 03:57:03;;;;;;;;;30.67;28.00;;;;;24.97;56.33;100864.44;6185927;22;45268;-84
2023/09/08 03:59:28;;;;;;;;;27.33;27.00;;;;;24.96;55.56;100865.47;6185042;23;45415;-83
2023/09/08 04:01:54;;;;;;;;;25.00;24.33;;;;;24.88;54.96;100846.44;6185459;23;45238;-82
2023/09/08 04:04:20;;;;;;;;;26.00;26.00;;;;;25.00;54.41;100861.34;6183554;23;45277;-87
2023/09/08 04:06:45;;;;;;;;;20.33;18.00;;;;;24.99;53.81;100863.22;6186962;23;45850;-84
2023/09/08 04:09:10;;;;;;;;;23.33;20.67;;;;;24.96;53.75;100854.56;6187477;23;45262;-84
2023/09/08 04:11:36;;;;;;;;;26.67;25.00;;;;;25.00;54.57;100861.34;6186491;23;45096;-85
2023/09/08 04:14:01;;;;;;;;;26.67;25.33;;;;;24.97;55.55;100859.00;6187179;22;49433;-86
2023/09/08 04:16:28;;;;;;;;;23.67;23.00;;;;;25.01;55.19;100863.13;6189383;23;45459;-84
2023/09/08 04:18:53;;;;;;;;;25.00;23.00;;;;;24.96;55.49;100865.47;6191907;22;45233;-85
2023/09/08 04:21:19;;;;;;;;;27.00;25.67;;;;;24.81;55.14;100845.41;6187801;23;45402;-87
2023/09/08 04:23:44;;;;;;;;;26.00;25.33;;;;;24.92;55.49;100873.13;6191741;22;45351;-86
2023/09/08 04:26:09;;;;;;;;;33.67;31.00;;;;;24.84;56.04;100850.50;6193494;23;45209;-88
2023/09/08 04:28:35;;;;;;;;;26.33;23.33;;;;;24.92;55.81;100869.56;6198770;22;45240;-86
2023/09/08 04:31:00;;;;;;;;;24.67;23.33;;;;;24.85;55.39;100863.09;6197928;23;44726;-85
2023/09/08 04:33:25;;;;;;;;;26.00;22.00;;;;;24.91;54.82;100868.72;6200256;23;53920;-82
2023/09/08 04:35:51;;;;;;;;;25.00;24.67;;;;;24.88;55.40;100870.94;6191790;22;45320;-85
2023/09/08 04:38:16;;;;;;;;;27.33;24.67;;;;;24.92;55.81;100869.56;6185413;23;60466;-85
2023/09/08 04:40:42;;;;;;;;;29.67;28.33;;;;;24.90;55.90;100877.88;6184454;23;48436;-82
2023/09/08 04:43:07;;;;;;;;;31.67;27.33;;;;;24.73;56.21;100851.72;6185952;22;45379;-83
2023/09/08 04:45:33;;;;;;;;;27.00;26.00;;;;;24.84;55.85;100872.28;6189909;22;45534;-84
2023/09/08 04:47:58;;;;;;;;;24.67;23.67;;;;;24.82;56.31;100874.31;6189404;22;45302;-83
2023/09/08 04:50:23;;;;;;;;;29.00;26.67;;;;;24.77;56.60;100874.00;6184240;23;45279;-86
2023/09/08 04:52:49;;;;;;;;;27.00;24.67;;;;;24.77;56.60;100872.13;6184377;23;45258;-87
2023/09/08 04:55:14;;;;;;;;;20.67;20.67;;;;;24.73;56.28;100869.91;6184664;22;45110;-84
2023/09/08 04:57:39;;;;;;;;;26.67;24.67;;;;;24.74;56.76;100877.91;6185958;23;45807;-87
2023/09/08 05:00:06;;;;;;;;;28.33;27.00;;;;;24.51;56.35;100836.97;6184522;23;45220;-83
2023/09/08 05:02:32;;;;;;;;;26.00;26.00;;;;;24.66;55.79;100865.16;6185134;22;45232;-84
2023/09/08 05:04:57;;;;;;;;;26.33;25.00;;;;;24.59;55.80;100847.81;6207887;22;45534;-85
2023/09/08 05:07:22;;;;;;;;;30.33;27.00;;;;;24.76;55.63;100878.59;6183328;23;45942;-85
2023/09/08 05:09:48;;;;;;;;;27.67;23.33;;;;;24.77;55.84;100877.56;6184200;23;45229;-85
2023/09/08 05:12:13;;;;;;;;;17.00;17.00;;;;;24.70;55.29;100866.50;6180748;23;60561;-83
2023/09/08 05:14:38;;;;;;;;;28.00;23.00;;;;;24.77;55.00;100874.00;6184376;22;45126;-81
2023/09/08 05:17:04;;;;;;;;;27.33;25.00;;;;;24.75;56.14;100871.44;6183000;23;59473;-83
2023/09/08 05:19:30;;;;;;;;;31.33;29.33;;;;;24.62;55.89;100855.66;6183731;22;45791;-80
2023/09/08 05:21:55;;;;;;;;;29.67;21.67;;;;;24.66;55.90;100865.16;6184168;22;45410;-85
2023/09/08 05:24:21;;;;;;;;;21.33;21.33;;;;;24.62;56.19;100854.81;6186073;23;45244;-83
2023/09/08 05:26:46;;;;;;;;;28.00;23.67;;;;;24.69;56.23;100881.13;6187014;23;45577;-85
2023/09/08 05:29:12;;;;;;;;;30.00;26.67;;;;;24.71;56.54;100873.63;6185753;23;45271;-82
2023/09/08 05:31:37;;;;;;;;;21.67;20.67;;;;;24.78;55.97;100889.28;6183624;23;45320;-86
2023/09/08 05:34:03;;;;;;;;;22.67;20.67;;;;;24.76;55.74;100875.88;6185371;22;45353;-83
2023/09/08 05:36:29;;;;;;;;;23.33;21.33;;;;;24.83;55.58;100885.03;6185530;23;45998;-84
2023/09/08 05:38:55;;;;;;;;;19.00;17.33;;;;;24.83;55.63;100881.47;6187415;23;45173;-85
2023/09/08 05:41:21;;;;;;;;;23.00;22.00;;;;;24.89;55.04;100891.66;6185690;22;45242;-85
2023/09/08 05:43:46;;;;;;;;;19.67;19.33;;;;;24.95;54.50;100890.97;6187104;23;45520;-83
2023/09/08 05:46:12;;;;;;;;;23.00;21.67;;;;;24.98;54.87;100893.34;6183600;23;46199;-84
2023/09/08 05:48:38;;;;;;;;;22.33;22.33;;;;;24.89;54.72;100868.03;6183752;23;45192;-83
2023/09/08 05:51:04;;;;;;;;;22.67;20.33;;;;;24.90;54.71;100858.84;6184889;23;45502;-85
2023/09/08 05:53:30;;;;;;;;;21.33;20.00;;;;;24.95;54.01;100863.75;6183775;23;45773;-84
2023/09/08 05:55:55;;;;;;;;;25.67;23.67;;;;;25.15;54.54;100886.91;6182508;23;45832;-83
2023/09/08 05:58:20;;;;;;;;;20.67;20.67;;;;;25.19;54.80;100899.13;6182639;23;45194;-85
2023/09/08 06:00:46;;;;;;;;;24.00;22.33;;;;;25.13;54.75;100877.19;6183010;23;45393;-84
2023/09/08 06:03:11;;;;;;;;;23.00;23.00;;;;;25.12;54.92;100872.75;6182883;23;45543;-85
2023/09/08 06:05:36;;;;;;;;;22.00;22.00;;;;;25.28;54.91;100892.66;6181521;23;53196;-84
2023/09/08 06:08:02;;;;;;;;;30.00;26.67;;;;;25.31;55.04;100885.16;6181806;23;45266;-85
2023/09/08 06:10:27;;;;;;;;;28.00;25.33;;;;;25.41;55.44;100897.56;6185989;23;45288;-84
2023/09/08 06:12:53;;;;;;;;;36.67;32.67;;;;;25.40;55.46;100892.28;6184754;23;45542;-87
2023/09/08 06:15:18;;;;;;;;;30.67;29.00;;;;;25.50;55.61;100911.97;6183526;23;53934;-84
2023/09/08 06:17:44;;;;;;;;;29.00;24.67;;;;;25.50;55.11;100896.47;6157662;23;45397;-86
2023/09/08 06:20:10;;;;;;;;;29.67;27.33;;;;;25.57;54.61;100894.75;6186214;23;45621;-83
2023/09/08 06:22:35;;;;;;;;;29.33;29.33;;;;;25.72;54.65;100896.78;6185000;23;45543;-83
2023/09/08 06:25:00;;;;;;;;;25.67;25.67;;;;;25.70;54.48;100880.63;6183373;23;45476;-85
2023/09/08 06:27:26;;;;;;;;;31.00;27.00;;;;;26.04;53.51;100893.03;6157033;23;49868;-86
2023/09/08 06:29:51;;;;;;;;;21.75;20.25;;;;;26.10;52.62;100897.78;6161864;23;45279;-82
2023/09/08 06:32:17;;;;;;;;;25.25;22.50;;;;;26.09;53.00;100906.97;6191345;23;45115;-88
2023/09/08 06:34:43;;;;;;;;;28.33;27.33;;;;;26.02;53.58;100878.72;6195545;23;45108;-86
2023/09/08 06:37:10;;;;;;;;;23.33;23.33;;;;;26.22;52.81;100899.06;6194689;23;45697;-87
2023/09/08 06:39:36;;;;;;;;;25.67;24.33;;;;;26.26;52.95;100908.56;6193786;23;45262;-89
2023/09/08 06:42:01;;;;;;;;;30.67;27.67;;;;;26.30;52.69;100907.16;6189849;23;45467;-88
2023/09/08 06:44:26;;;;;;;;;32.33;28.67;;;;;26.31;52.97;100900.72;6189885;23;46064;-86
2023/09/08 06:46:52;;;;;;;;;49.67;41.00;;;;;26.36;52.84;100900.19;6194523;22;45365;-90
2023/09/08 06:49:17;;;;;;;;;29.67;27.33;;;;;26.30;53.11;100898.13;6193885;23;45267;-90
2023/09/08 06:51:43;;;;;;;;;28.00;25.67;;;;;26.21;52.92;100871.97;6191477;23;45319;-87
2023/09/08 06:54:08;;;;;;;;;14.67;7.67;;;;;26.55;52.48;100901.56;6189864;23;47108;-87
2023/09/08 06:56:35;;;;;;;;;29.67;27.00;;;;;26.62;52.34;100905.28;6193075;23;45232;-85
2023/09/08 06:59:01;;;;;;;;;25.67;24.00;;;;;26.64;52.32;100908.66;6189807;22;45301;-83
2023/09/08 07:01:26;;;;;;;;;35.33;32.00;;;;;26.73;51.89;100902.13;6191584;23;45802;-83
2023/09/08 07:03:51;;;;;;;;;24.67;22.67;;;;;26.80;50.69;100903.06;6194169;23;45277;-85
2023/09/08 07:06:17;;;;;;;;;30.33;28.67;;;;;26.89;50.84;100912.03;6187879;22;45292;-86
2023/09/08 07:08:42;;;;;;;;;26.33;23.33;;;;;26.91;51.01;100908.09;6187662;23;51755;-84
2023/09/08 07:11:08;;;;;;;;;28.33;24.67;;;;;26.86;50.36;100894.16;6186258;22;45342;-83
2023/09/08 07:13:33;;;;;;;;;21.00;21.00;;;;;27.11;50.03;100908.47;6184565;23;45967;-84
2023/09/08 07:15:59;;;;;;;;;20.75;19.00;;;;;27.22;49.62;100910.75;6185679;23;45720;-80
2023/09/08 07:18:26;;;;;;;;;23.25;21.00;;;;;27.21;49.51;100892.63;6185330;23;45280;-82
2023/09/08 07:20:51;;;;;;;;;21.00;20.50;;;;;27.41;48.96;100913.94;6184449;23;45578;-82
2023/09/08 07:23:20;;;;;;;;;24.25;21.00;;;;;27.48;48.84;100914.91;6183982;23;46254;-83
2023/09/08 07:25:49;;;;;;;;;19.75;18.75;;;;;27.53;47.40;100918.75;6188059;22;45193;-82
2023/09/08 07:28:15;;;;;;;;;20.00;17.25;;;;;27.54;47.18;100916.88;6185903;22;45540;-84
2023/09/08 07:30:41;;;;;;;;;18.00;15.00;;;;;27.53;47.26;100910.56;6185504;22;45335;-84
2023/09/08 07:33:06;;;;;;;;;23.75;21.50;;;;;27.60;47.15;100916.94;6184656;23;46643;-82
2023/09/08 07:35:32;;;;;;;;;16.50;14.00;;;;;27.59;46.88;100915.25;6184556;22;45415;-83
2023/09/08 07:37:57;;;;;;;;;19.75;18.75;;;;;27.52;46.97;100891.63;6184579;23;45421;-84
2023/09/08 07:40:23;;;;;;;;;17.50;15.25;;;;;27.70;46.89;100919.44;6183248;23;45404;-84
2023/09/08 07:42:48;;;;;;;;;17.50;17.25;;;;;27.75;46.21;100917.00;6183862;23;45406;-86
2023/09/08 07:45:13;;;;;;;;;20.50;16.75;;;;;27.60;46.61;100886.03;6186141;23;45316;-84
2023/09/08 07:47:38;;;;;;;;;20.50;17.00;;;;;27.81;46.09;100918.09;6189083;22;45336;-83
2023/09/08 07:50:22;;;;;;;;;20.75;17.75;;;;;27.77;46.25;100928.56;6188994;22;45711;-84
2023/09/08 07:52:49;;;;;;;;;16.25;14.75;;;;;27.79;46.54;100922.91;6187491;23;45461;-87
2023/09/08 07:55:15;;;;;;;;;14.50;14.50;;;;;27.83;46.17;100926.94;6188736;23;45382;-86
2023/09/08 07:57:42;;;;;;;;;18.75;16.75;;;;;27.78;46.06;100904.81;6186276;22;45485;-84
2023/09/08 08:00:10;;;;;;;;;12.50;12.50;;;;;27.92;45.51;100923.09;6206895;22;45450;-85
2023/09/08 08:02:36;;;;;;;;;19.50;14.75;;;;;27.99;45.72;100925.88;6181298;23;47705;-83
2023/09/08 08:05:01;;;;;;;;;17.75;16.50;;;;;27.92;45.53;100899.31;6185262;22;45433;-84
2023/09/08 08:07:27;;;;;;;;;17.75;17.00;;;;;28.09;45.82;100908.13;6183905;23;45331;-84
2023/09/08 08:09:53;;;;;;;;;17.25;17.25;;;;;28.17;44.96;100924.44;6182250;23;45352;-86
2023/09/08 08:12:19;;;;;;;;;21.00;17.50;;;;;28.08;45.11;100917.38;6183635;23;45991;-87
2023/09/08 08:14:44;;;;;;;;;20.75;15.00;;;;;28.15;44.86;100923.78;6183240;23;45296;-83
2023/09/08 08:17:11;;;;;;;;;16.25;16.25;;;;;28.15;45.68;100932.00;6181229;23;61937;-83
2023/09/08 08:19:36;;;;;;;;;16.75;15.50;;;;;28.03;45.07;100903.47;6184450;22;45216;-83
2023/09/08 08:22:01;;;;;;;;;13.75;13.75;;;;;28.29;44.89;100922.09;6184045;23;50925;-82
2023/09/08 08:24:26;;;;;;;;;16.50;14.75;;;;;28.34;45.30;100924.22;6183934;22;45275;-84
2023/09/08 08:26:52;;;;;;;;;20.00;18.75;;;;;28.29;44.45;100908.41;6182879;23;45279;-82
2023/09/08 08:29:17;;;;;;;;;14.75;14.75;;;;;28.36;44.77;100930.34;6182505;23;45582;-82
2023/09/08 08:31:42;;;;;;;;;15.25;15.25;;;;;28.44;44.46;100930.25;6184026;22;59461;-83
2023/09/08 08:34:09;;;;;;;;;17.25;15.75;;;;;28.49;44.14;100923.13;6183231;23;45281;-82
2023/09/08 08:36:36;;;;;;;;;21.50;18.50;;;;;28.58;44.24;100929.31;6185765;22;45469;-82
2023/09/08 08:39:01;;;;;;;;;17.00;15.00;;;;;28.68;44.47;100935.31;6190422;23;45359;-81
2023/09/08 08:41:26;;;;;;;;;18.25;15.75;;;;;28.64;44.36;100931.28;6189495;23;53363;-87
2023/09/08 08:43:53;;;;;;;;;22.00;17.25;;;;;28.61;44.50;100912.50;6189542;23;45359;-83
2023/09/08 08:46:21;;;;;;;;;15.50;15.50;;;;;28.73;44.21;100921.88;6189636;22;45412;-80
2023/09/08 08:48:48;;;;;;;;;16.75;16.75;;;;;28.62;44.12;100905.16;6189315;22;45303;-81
2023/09/08 08:51:17;;;;;;;;;16.25;15.00;;;;;28.85;44.79;100932.31;6186932;22;46687;-79
2023/09/08 08:53:43;;;;;;;;;17.40;15.80;;;;;28.79;44.46;100923.84;6189868;22;45398;-82
2023/09/08 08:56:10;;;;;;;;;20.75;17.00;;;;;28.80;44.52;100905.53;6191323;22;45414;-81
2023/09/08 08:58:38;;;;;;;;;18.75;16.00;;;;;29.07;43.93;100939.50;6189293;22;45627;-80
2023/09/08 09:01:06;;;;;;;;;20.25;18.50;;;;;28.64;43.67;100884.75;6187007;23;47952;-79
2023/09/08 09:03:34;;;;;;;;;19.40;16.00;;;;;28.86;44.09;100909.38;6190415;22;45523;-81
2023/09/08 09:05:59;;;;;;;;;20.50;17.50;;;;;29.07;43.81;100940.34;6215951;22;45395;-81
2023/09/08 09:08:27;;;;;;;;;20.75;17.50;;;;;29.08;43.33;100925.59;6195879;22;45265;-83
2023/09/08 09:10:52;;;;;;;;;20.50;16.50;;;;;29.15;43.36;100939.31;6194623;22;45598;-83
2023/09/08 09:13:18;;;;;;;;;11.00;11.00;;;;;29.27;43.39;100951.44;6192668;23;45259;-81
2023/09/08 09:15:44;;;;;;;;;16.25;13.25;;;;;29.27;42.68;100936.91;6186167;23;45557;-82
2023/09/08 09:18:10;;;;;;;;;18.00;15.50;;;;;29.30;42.77;100923.66;6184608;23;45497;-80
2023/09/08 09:20:35;;;;;;;;;14.00;13.00;;;;;29.37;42.74;100935.50;6181639;23;46934;-82
2023/09/08 09:23:01;;;;;;;;;20.00;12.50;;;;;29.44;42.59;100951.16;6184728;23;45393;-82
2023/09/08 09:25:31;;;;;;;;;19.00;14.00;;;;;29.49;42.19;100940.44;6185765;23;45323;-82
2023/09/08 09:28:01;;;;;;;;;16.75;16.75;;;;;29.60;42.60;100937.16;6184465;22;45366;-81
2023/09/08 09:30:27;;;;;;;;;14.25;12.75;;;;;29.63;42.86;100936.75;6184547;22;46093;-80
2023/09/08 09:33:00;;;;;;;;;15.00;12.60;;;;;29.77;42.21;100941.25;6184129;23;45375;-82
2023/09/08 09:35:40;;;;;;;;;17.75;15.50;;;;;29.88;42.37;100948.91;6183105;23;45416;-83
2023/09/08 09:38:06;;;;;;;;;15.25;15.25;;;;;29.85;42.21;100921.03;6186520;22;45298;-83
2023/09/08 09:40:32;;;;;;;;;19.75;18.25;;;;;30.01;41.85;100942.63;6187033;23;45797;-82
2023/09/08 09:42:58;;;;;;;;;15.80;14.80;;;;;29.91;41.66;100926.53;6186952;22;45299;-83
2023/09/08 09:45:25;;;;;;;;;15.00;15.00;;;;;30.01;41.85;100942.63;6188275;22;45279;-79
2023/09/08 09:47:51;;;;;;;;;16.50;16.50;;;;;30.08;41.60;100945.41;6184251;23;45559;-81
2023/09/08 09:50:28;;;;;;;;;14.50;14.50;;;;;30.06;41.83;100928.31;6184641;23;46378;-81
2023/09/08 09:52:57;;;;;;;;;15.80;14.40;;;;;30.22;41.53;100938.94;6184915;22;45879;-82
2023/09/08 09:55:23;;;;;;;;;14.00;14.00;;;;;30.25;41.46;100935.78;6185189;23;45318;-82
2023/09/08 09:57:49;;;;;;;;;14.25;14.25;;;;;30.33;41.33;100941.06;6187949;22;45237;-83
2023/09/08 10:00:15;;;;;;;;;17.25;16.25;;;;;30.36;41.22;100928.84;6185386;22;45438;-79
2023/09/08 10:02:41;;;;;;;;;13.75;12.50;;;;;30.41;40.91;100920.84;6181967;22;45348;-80
2023/09/08 10:05:13;;;;;;;;;16.60;13.60;;;;;30.42;41.12;100909.66;6185069;22;45373;-84
2023/09/08 10:07:40;;;;;;;;;14.00;14.00;;;;;30.62;40.96;100923.41;6183922;22;45290;-82
2023/09/08 10:10:06;;;;;;;;;17.75;16.25;;;;;30.70;40.96;100922.38;6183190;22;46299;-85
2023/09/08 10:12:35;;;;;;;;;15.00;15.00;;;;;30.77;40.70;100926.84;6184816;23;45389;-81
2023/09/08 10:15:03;;;;;;;;;15.60;14.20;;;;;30.81;39.70;100922.59;6184438;22;45414;-81
2023/09/08 10:17:30;;;;;;;;;15.00;12.40;;;;;30.84;39.53;100924.09;6185617;22;45502;-80
2023/09/08 10:20:00;;;;;;;;;15.20;13.80;;;;;30.88;39.79;100919.88;6186005;23;46521;-82
2023/09/08 10:22:30;;;;;;;;;9.60;9.40;;;;;31.01;39.24;100919.88;6187142;22;45285;-83
2023/09/08 10:24:57;;;;;;;;;12.80;11.00;;;;;31.10;39.38;100910.34;6182876;22;45366;-82
2023/09/08 10:27:23;;;;;;;;;16.40;15.20;;;;;31.27;39.00;100934.69;6184834;22;45312;-83
2023/09/08 10:29:50;;;;;;;;;14.80;14.00;;;;;31.38;38.96;100928.50;6182292;23;45418;-85
2023/09/08 10:32:16;;;;;;;;;15.80;15.40;;;;;31.51;38.72;100933.97;6182913;22;45327;-82
2023/09/08 10:34:43;;;;;;;;;14.20;13.00;;;;;31.57;38.57;100922.13;6184548;22;45300;-84
2023/09/08 10:37:22;;;;;;;;;22.00;20.50;;;;;31.68;38.11;100924.22;6176917;23;45328;-81
2023/09/08 10:39:48;;;;;;;;;12.40;12.20;;;;;31.93;38.83;100926.28;6176471;23;46252;-83
2023/09/08 10:42:16;;;;;;;;;16.75;16.50;;;;;32.14;38.72;100928.69;6203383;22;45340;-82
2023/09/08 10:44:56;;;;;;;;;19.20;16.80;;;;;32.35;38.34;100930.31;6179322;23;45622;-84
2023/09/08 10:47:30;;;;;;;;;13.80;13.80;;;;;32.56;37.30;100923.63;6181316;22;45280;-83
2023/09/08 10:49:57;;;;;;;;;14.80;13.40;;;;;32.85;35.96;100925.78;6180286;23;45626;-83
2023/09/08 10:52:23;;;;;;;;;13.60;12.40;;;;;32.90;35.72;100871.91;6180482;22;45283;-86
2023/09/08 10:54:50;;;;;;;;;11.00;10.20;;;;;33.26;34.91;100894.03;6179306;22;45265;-85
2023/09/08 10:57:18;;;;;;;;;17.00;14.80;;;;;33.75;34.82;100918.97;6179454;22;45494;-84
2023/09/08 10:59:57;;;;;;;;;13.80;11.80;;;;;34.11;34.25;100901.53;6179226;22;45335;-83
2023/09/08 11:02:42;;;;;;;;;14.80;13.00;;;;;34.54;33.63;100918.78;6179732;22;45602;-83
2023/09/08 11:05:10;;;;;;;;;12.20;12.00;;;;;34.78;32.41;100902.28;6179725;22;45300;-84